createdAt,value
2022-10-25T12:43:01.593Z,997.92
2022-10-25T12:48:01.394Z,997.98
2022-10-25T12:53:01.363Z,997.90
2022-10-25T12:58:01.288Z,997.98
2022-10-25T13:03:01.403Z,997.81
2022-10-25T13:08:01.182Z,997.80
2022-10-25T13:13:01.142Z,997.75
2022-10-25T13:18:01.065Z,997.76
2022-10-25T13:23:01.151Z,997.84
2022-10-25T13:28:00.956Z,997.89
2022-10-25T13:33:00.956Z,997.88
2022-10-25T13:38:00.851Z,997.86
2022-10-25T13:43:00.946Z,997.78
2022-10-25T13:48:00.734Z,997.76
2022-10-25T13:53:02.520Z,997.87
2022-10-25T13:58:00.636Z,997.73
2022-10-25T14:03:00.602Z,997.78
2022-10-25T14:08:00.525Z,997.78
2022-10-25T14:13:00.469Z,997.81
2022-10-25T14:18:00.421Z,997.81
2022-10-25T14:23:00.384Z,997.85
2022-10-25T14:28:00.313Z,997.85
2022-10-25T14:33:00.238Z,997.83
2022-10-25T14:38:00.203Z,997.84
2022-10-25T14:43:00.164Z,997.79
2022-10-25T14:48:00.099Z,997.79
2022-10-25T14:53:01.216Z,997.69
2022-10-25T14:57:59.985Z,997.71
2022-10-25T15:02:59.949Z,997.68
2022-10-25T15:07:59.890Z,997.58
2022-10-25T15:12:59.822Z,997.64
2022-10-25T15:17:59.754Z,997.56
2022-10-25T15:22:59.727Z,997.50
2022-10-25T15:27:59.655Z,997.54
2022-10-25T15:32:59.598Z,997.47
2022-10-25T15:37:59.546Z,997.52
2022-10-25T15:42:59.514Z,997.48
2022-10-25T15:47:59.432Z,997.48
2022-10-25T15:52:59.470Z,997.57
2022-10-25T15:57:59.329Z,997.54
2022-10-25T16:02:59.301Z,997.59
2022-10-25T16:07:59.210Z,997.45
2022-10-25T16:12:59.579Z,997.49
2022-10-25T16:17:59.126Z,997.41
2022-10-25T16:22:59.075Z,997.34
2022-10-25T16:27:59.007Z,997.25
2022-10-25T16:32:58.952Z,997.39
2022-10-25T16:37:58.948Z,997.39
2022-10-25T16:42:58.864Z,997.35
2022-10-25T16:47:58.847Z,997.40
2022-10-25T16:52:58.755Z,997.36
2022-10-25T16:57:58.674Z,997.25
2022-10-25T17:02:58.666Z,997.22
2022-10-25T17:07:58.566Z,997.32
2022-10-25T17:12:58.600Z,997.25
2022-10-25T17:17:58.457Z,997.21
2022-10-25T17:22:58.447Z,997.19
2022-10-25T17:27:58.351Z,997.23
2022-10-25T17:32:58.301Z,997.20
2022-10-25T17:37:58.251Z,997.15
2022-10-25T17:42:58.201Z,997.14
2022-10-25T17:47:58.149Z,997.14
2022-10-25T17:52:58.076Z,997.02
2022-10-25T17:57:58.113Z,997.00
2022-10-25T18:02:57.991Z,997.06
2022-10-25T18:08:04.967Z,997.08
2022-10-25T18:12:57.860Z,997.13
2022-10-25T18:17:57.823Z,997.00
2022-10-25T18:22:57.766Z,997.01
2022-10-25T18:27:57.711Z,997.00
2022-10-25T18:32:57.642Z,997.06
2022-10-25T18:37:57.599Z,996.99
2022-10-25T18:42:57.568Z,996.98
2022-10-25T18:47:57.492Z,997.08
2022-10-25T18:52:57.427Z,997.04
2022-10-25T18:57:57.385Z,997.08
2022-10-25T19:02:57.349Z,997.04
2022-10-25T19:07:57.279Z,997.06
2022-10-25T19:12:57.232Z,996.99
2022-10-25T19:17:57.169Z,996.96
2022-10-25T19:22:57.142Z,996.93
2022-10-25T19:27:57.044Z,996.91
2022-10-25T19:32:57.009Z,996.91
2022-10-25T19:37:56.979Z,996.89
2022-10-25T19:42:56.905Z,996.87
2022-10-25T19:47:56.839Z,996.81
2022-10-25T19:52:56.798Z,996.83
2022-10-25T19:57:56.719Z,996.82
2022-10-25T20:02:56.700Z,996.81
2022-10-25T20:07:56.629Z,996.85
2022-10-25T20:12:56.556Z,996.82
2022-10-25T20:17:56.511Z,996.79
2022-10-25T20:22:56.492Z,996.80
2022-10-25T20:27:56.479Z,996.74
2022-10-25T20:32:56.348Z,996.73
2022-10-25T20:37:56.293Z,996.64
2022-10-25T20:42:56.276Z,996.68
2022-10-25T20:47:56.171Z,996.66
2022-10-25T20:53:09.633Z,996.60
2022-10-25T20:57:57.082Z,996.65
2022-10-25T21:02:56.023Z,996.63
2022-10-25T21:07:55.963Z,996.55
2022-10-25T21:12:55.904Z,996.54
2022-10-25T21:17:55.839Z,996.54
2022-10-25T21:22:55.836Z,996.50
2022-10-25T21:27:55.731Z,996.47
2022-10-25T21:32:55.695Z,996.35
2022-10-25T21:37:55.923Z,996.29
2022-10-25T21:42:55.597Z,996.33
2022-10-25T21:47:55.536Z,996.28
2022-10-25T21:52:55.461Z,996.20
2022-10-25T21:57:55.841Z,996.20
2022-10-25T22:02:55.386Z,996.19
2022-10-25T22:07:55.290Z,996.21
2022-10-25T22:12:55.245Z,996.10
2022-10-25T22:17:55.211Z,996.09
2022-10-25T22:22:55.161Z,996.14
2022-10-25T22:27:55.082Z,996.12
2022-10-25T22:32:55.025Z,996.17
2022-10-25T22:37:54.988Z,996.07
2022-10-25T22:42:54.955Z,996.19
2022-10-25T22:47:54.864Z,996.12
2022-10-25T22:52:54.814Z,996.07
2022-10-25T22:57:54.734Z,996.14
2022-10-25T23:02:54.800Z,996.14
2022-10-25T23:07:54.651Z,996.17
2022-10-25T23:12:54.571Z,996.09
2022-10-25T23:17:54.532Z,996.03
2022-10-25T23:22:54.491Z,995.99
2022-10-25T23:27:54.407Z,996.11
